Terminal Aerodrome Forecast
Issued by NWS Binghamton, NY

Home | Current Version | Previous Version | Text Only | Print | Product List | Glossary On
Versions: 1 2 3 4 5 6 7 8 9 10 11 12 13 14 15 16 17 18
000
FTUS41 KBGM 011120
TAFAVP
TAF
KAVP 011120Z 0112/0212 23006KT 5SM BR SCT005 OVC030
      TEMPO 0112/0114 2SM BR OVC005
     FM011400 25008G16KT P6SM SCT035 BKN070
     FM011900 29006KT P6SM SCT040
     FM020000 27004KT P6SM BKN250
     FM020900 32002KT P6SM BKN040=

USA.gov is the U.S. government's official web portal to all federal, state and local government web resources and services.